Impacts TAF Board INFO
FOR SITUATIONAL AWARENESS. NOT TO BE USED FOR FLIGHT PLANNING PURPOSES.
IDs:

KDFW - Dallas-Ft Worth Intl, TX, US

Issued at 0102 UTC 27 Feb 2017
Updated at 0202 UTC 27 Feb 2017
Potential Impact None Slight Moderate High
Time0153Z 27/03Z 27/04Z 27/05Z 27/06Z 27/07Z 27/08Z 27/09Z 27/10Z 27/11Z 27/12Z 27/13Z 27/14Z 27/15Z
Type OBS PRVL PRVL PRVL PRVL PRVL PRVL PRVL PRVL PRVL PRVL PRVL PRVL PRVL
VIS 10 5 5 5 2 2 2 2 2 2 5 5 5 5
CIG 110 15 15 15 8 8 8 8 8 8 15 15 15 15
Cover OVC OVC OVC OVC OVC OVC OVC OVC OVC OVC OVC OVC OVC OVC
FltCat VFR MVFR MVFR MVFR IFR IFR IFR IFR IFR IFR MVFR MVFR MVFR MVFR
WX -- -SHRA BR -SHRA BR -SHRA BR -DZ BR -DZ BR -DZ BR -DZ BR -DZ BR -DZ BR BR BR BR BR
WDir 50 140 140 140 130 130 130 130 130 130 170 170 170 170
WSpd 6 12 12 12 9 9 9 9 9 9 12 12 12 12
WGst -- -- -- -- -- -- -- -- -- -- -- -- -- --

Raw TAF
KDFW 270102Z 2701/2806 17008KT P6SM VCSH SCT024 BKN150
  FM270300 14012KT 5SM -SHRA BR OVC015
  FM270600 13009KT 2SM -DZ BR OVC008
  FM271200 17012KT 5SM BR OVC015
  FM271700 21014KT P6SM SCT015
  FM272200 21010KT P6SM SCT050


Raw METAR
KDFW 270153Z 05006KT 10SM FEW024 BKN110 OVC250 15/12 A2988 RMK AO2 SLP117 T01500117
KDFW 270053Z 20004KT 10SM FEW027 BKN150 OVC250 16/11 A2987 RMK AO2 SLP114 T01610111
KDFW 262353Z 18007KT 10SM FEW027 BKN180 OVC250 17/12 A2986 RMK AO2 SLP110 T01670117 10172 20156 55004

METAR Board
Radar Display
Forecast Discussion

FOR SITUATIONAL AWARENESS. NOT TO BE USED FOR FLIGHT PLANNING PURPOSES.

Page loaded:  02:02 UTC  |   06:02 PM Pacific  |   07:02 PM Mountain  |   08:02 PM Central  |   09:02 PM Eastern

 

ADVISORIES

FORECASTS

FORECASTS

OBSERVATIONS

USER TOOLS

ABOUT US